sensor_id;sensor_type;location;lat;lon;timestamp;pressure;altitude;pressure_sealevel;temperature;humidity
62524;BME280;53689;56.878;60.672;2024-02-04T00:02:07;96049.16;;;20.13;24.90
62524;BME280;53689;56.878;60.672;2024-02-04T00:04:35;96045.16;;;19.98;23.65
62524;BME280;53689;56.878;60.672;2024-02-04T00:07:03;96048.56;;;20.10;24.25
62524;BME280;53689;56.878;60.672;2024-02-04T00:09:31;96044.75;;;20.06;23.55
62524;BME280;53689;56.878;60.672;2024-02-04T00:12:03;96041.50;;;20.21;24.87
62524;BME280;53689;56.878;60.672;2024-02-04T00:14:32;96049.94;;;19.96;25.32
62524;BME280;53689;56.878;60.672;2024-02-04T00:17:00;96049.63;;;20.09;25.02
62524;BME280;53689;56.878;60.672;2024-02-04T00:19:28;96059.00;;;20.07;22.67
62524;BME280;53689;56.878;60.672;2024-02-04T00:21:55;96049.38;;;19.94;23.37
62524;BME280;53689;56.878;60.672;2024-02-04T00:24:23;96057.06;;;19.90;23.38
62524;BME280;53689;56.878;60.672;2024-02-04T00:26:52;96056.06;;;20.08;24.59
62524;BME280;53689;56.878;60.672;2024-02-04T00:29:19;96043.69;;;20.07;23.45
62524;BME280;53689;56.878;60.672;2024-02-04T00:31:49;96049.41;;;20.11;24.61
62524;BME280;53689;56.878;60.672;2024-02-04T00:34:36;96047.00;;;20.27;24.20
62524;BME280;53689;56.878;60.672;2024-02-04T00:37:05;96050.31;;;20.17;25.01
62524;BME280;53689;56.878;60.672;2024-02-04T00:39:33;96058.28;;;20.12;22.68
62524;BME280;53689;56.878;60.672;2024-02-04T00:42:01;96059.41;;;20.16;23.80
62524;BME280;53689;56.878;60.672;2024-02-04T00:44:28;96053.03;;;20.05;23.44
62524;BME280;53689;56.878;60.672;2024-02-04T00:46:58;96051.75;;;20.07;24.98
62524;BME280;53689;56.878;60.672;2024-02-04T00:49:25;96051.25;;;20.10;24.75
62524;BME280;53689;56.878;60.672;2024-02-04T00:51:53;96057.06;;;20.19;24.72
62524;BME280;53689;56.878;60.672;2024-02-04T00:54:21;96058.84;;;20.14;22.94
62524;BME280;53689;56.878;60.672;2024-02-04T00:56:49;96053.56;;;20.19;23.02
62524;BME280;53689;56.878;60.672;2024-02-04T00:59:35;96055.41;;;20.01;22.99
62524;BME280;53689;56.878;60.672;2024-02-04T01:02:04;96054.59;;;20.01;23.11
62524;BME280;53689;56.878;60.672;2024-02-04T01:04:32;96061.53;;;19.85;24.12
62524;BME280;53689;56.878;60.672;2024-02-04T01:07:00;96060.84;;;19.77;24.84
62524;BME280;53689;56.878;60.672;2024-02-04T01:09:29;96061.94;;;20.05;25.39
62524;BME280;53689;56.878;60.672;2024-02-04T01:11:57;96058.03;;;19.84;23.39
62524;BME280;53689;56.878;60.672;2024-02-04T01:14:25;96053.00;;;19.88;22.97
62524;BME280;53689;56.878;60.672;2024-02-04T01:16:53;96049.16;;;19.83;23.86
62524;BME280;53689;56.878;60.672;2024-02-04T01:19:22;96052.88;;;19.94;23.93
62524;BME280;53689;56.878;60.672;2024-02-04T01:21:49;96045.03;;;19.93;23.11
62524;BME280;53689;56.878;60.672;2024-02-04T01:24:17;96050.03;;;20.01;24.08
62524;BME280;53689;56.878;60.672;2024-02-04T01:26:45;96050.63;;;20.03;24.44
62524;BME280;53689;56.878;60.672;2024-02-04T01:29:13;96052.09;;;20.11;25.15
62524;BME280;53689;56.878;60.672;2024-02-04T01:31:41;96047.25;;;19.96;23.61
62524;BME280;53689;56.878;60.672;2024-02-04T01:34:09;96050.47;;;20.10;23.38
62524;BME280;53689;56.878;60.672;2024-02-04T01:36:57;96040.25;;;19.95;23.50
62524;BME280;53689;56.878;60.672;2024-02-04T01:39:25;96052.81;;;20.06;25.03
62524;BME280;53689;56.878;60.672;2024-02-04T01:41:53;96039.56;;;19.88;24.01
62524;BME280;53689;56.878;60.672;2024-02-04T01:44:21;96049.78;;;20.03;24.54
62524;BME280;53689;56.878;60.672;2024-02-04T01:46:49;96041.41;;;19.99;24.27
62524;BME280;53689;56.878;60.672;2024-02-04T01:49:16;96036.19;;;20.09;24.81
62524;BME280;53689;56.878;60.672;2024-02-04T01:51:44;96046.09;;;19.92;23.75
62524;BME280;53689;56.878;60.672;2024-02-04T01:54:15;96036.38;;;19.91;23.95
62524;BME280;53689;56.878;60.672;2024-02-04T01:56:44;96027.28;;;19.92;25.03
62524;BME280;53689;56.878;60.672;2024-02-04T01:59:14;96028.16;;;20.09;24.82
62524;BME280;53689;56.878;60.672;2024-02-04T02:01:43;96022.59;;;19.99;24.83
62524;BME280;53689;56.878;60.672;2024-02-04T02:04:11;96024.22;;;20.00;25.53
62524;BME280;53689;56.878;60.672;2024-02-04T02:06:40;96022.69;;;20.04;25.65
62524;BME280;53689;56.878;60.672;2024-02-04T02:09:08;96027.00;;;20.05;25.51
62524;BME280;53689;56.878;60.672;2024-02-04T02:11:40;96033.47;;;19.92;25.09
62524;BME280;53689;56.878;60.672;2024-02-04T02:14:12;96025.06;;;20.01;25.72
62524;BME280;53689;56.878;60.672;2024-02-04T02:16:41;96031.00;;;20.20;25.06
62524;BME280;53689;56.878;60.672;2024-02-04T02:19:24;96035.97;;;20.11;23.81
62524;BME280;53689;56.878;60.672;2024-02-04T02:22:02;96029.38;;;19.90;23.60
62524;BME280;53689;56.878;60.672;2024-02-04T02:24:34;96030.53;;;20.23;25.25
62524;BME280;53689;56.878;60.672;2024-02-04T02:27:03;96042.41;;;20.10;23.51
62524;BME280;53689;56.878;60.672;2024-02-04T02:29:31;96041.75;;;19.91;23.77
62524;BME280;53689;56.878;60.672;2024-02-04T02:31:59;96040.50;;;20.10;23.81
62524;BME280;53689;56.878;60.672;2024-02-04T02:34:46;96035.09;;;20.22;24.61
62524;BME280;53689;56.878;60.672;2024-02-04T02:37:32;96043.63;;;20.02;23.54
62524;BME280;53689;56.878;60.672;2024-02-04T02:40:08;96039.72;;;19.81;22.80
62524;BME280;53689;56.878;60.672;2024-02-04T02:42:38;96043.84;;;19.72;24.25
62524;BME280;53689;56.878;60.672;2024-02-04T02:45:09;96043.69;;;19.78;24.57
62524;BME280;53689;56.878;60.672;2024-02-04T02:47:39;96041.75;;;19.62;23.56
62524;BME280;53689;56.878;60.672;2024-02-04T02:50:09;96040.06;;;19.85;22.59
62524;BME280;53689;56.878;60.672;2024-02-04T02:52:36;96036.31;;;19.57;24.20
62524;BME280;53689;56.878;60.672;2024-02-04T02:55:07;96044.00;;;19.53;23.15
62524;BME280;53689;56.878;60.672;2024-02-04T02:57:34;96044.22;;;19.63;23.35
62524;BME280;53689;56.878;60.672;2024-02-04T03:00:03;96050.59;;;19.45;22.84
62524;BME280;53689;56.878;60.672;2024-02-04T03:02:31;96042.28;;;19.47;23.76
62524;BME280;53689;56.878;60.672;2024-02-04T03:04:58;96046.38;;;19.78;23.45
62524;BME280;53689;56.878;60.672;2024-02-04T03:07:26;96052.41;;;19.57;23.47
62524;BME280;53689;56.878;60.672;2024-02-04T03:09:54;96055.94;;;19.45;25.56
62524;BME280;53689;56.878;60.672;2024-02-04T03:12:23;96056.34;;;19.66;24.99
62524;BME280;53689;56.878;60.672;2024-02-04T03:14:51;96060.25;;;19.87;25.37
62524;BME280;53689;56.878;60.672;2024-02-04T03:17:19;96059.75;;;20.02;23.19
62524;BME280;53689;56.878;60.672;2024-02-04T03:19:47;96048.91;;;19.85;24.31
62524;BME280;53689;56.878;60.672;2024-02-04T03:25:01;96062.72;;;19.77;24.05
62524;BME280;53689;56.878;60.672;2024-02-04T03:27:31;96061.16;;;19.93;23.47
62524;BME280;53689;56.878;60.672;2024-02-04T03:29:59;96054.94;;;20.04;23.98
62524;BME280;53689;56.878;60.672;2024-02-04T03:32:27;96059.06;;;19.95;24.50
62524;BME280;53689;56.878;60.672;2024-02-04T03:34:55;96057.31;;;20.18;24.52
62524;BME280;53689;56.878;60.672;2024-02-04T03:37:23;96045.72;;;20.00;22.47
62524;BME280;53689;56.878;60.672;2024-02-04T03:39:51;96044.41;;;20.03;24.96
62524;BME280;53689;56.878;60.672;2024-02-04T03:42:19;96047.38;;;19.89;24.50
62524;BME280;53689;56.878;60.672;2024-02-04T03:45:08;96047.06;;;20.15;25.53
62524;BME280;53689;56.878;60.672;2024-02-04T03:47:36;96048.06;;;20.26;24.30
62524;BME280;53689;56.878;60.672;2024-02-04T03:52:50;96058.66;;;19.74;23.39
62524;BME280;53689;56.878;60.672;2024-02-04T03:55:18;96060.16;;;19.70;23.40
62524;BME280;53689;56.878;60.672;2024-02-04T03:57:47;96064.03;;;19.74;23.05
62524;BME280;53689;56.878;60.672;2024-02-04T04:00:17;96063.72;;;19.88;22.92
62524;BME280;53689;56.878;60.672;2024-02-04T04:02:45;96057.59;;;19.75;23.52
62524;BME280;53689;56.878;60.672;2024-02-04T04:05:13;96058.56;;;19.98;25.05
62524;BME280;53689;56.878;60.672;2024-02-04T04:07:41;96062.81;;;19.94;25.20
62524;BME280;53689;56.878;60.672;2024-02-04T04:10:10;96062.44;;;20.02;24.01
62524;BME280;53689;56.878;60.672;2024-02-04T04:12:38;96051.25;;;19.93;23.99
62524;BME280;53689;56.878;60.672;2024-02-04T04:15:07;96051.34;;;19.87;24.71
62524;BME280;53689;56.878;60.672;2024-02-04T04:17:36;96054.81;;;19.99;23.94
62524;BME280;53689;56.878;60.672;2024-02-04T04:20:06;96056.63;;;20.10;23.95
62524;BME280;53689;56.878;60.672;2024-02-04T04:22:34;96053.81;;;19.88;22.55
62524;BME280;53689;56.878;60.672;2024-02-04T04:25:02;96041.44;;;19.87;25.12
62524;BME280;53689;56.878;60.672;2024-02-04T04:27:30;96032.88;;;20.19;23.89
62524;BME280;53689;56.878;60.672;2024-02-04T04:29:58;96037.94;;;20.16;23.93
62524;BME280;53689;56.878;60.672;2024-02-04T04:32:26;96049.81;;;20.20;25.31
62524;BME280;53689;56.878;60.672;2024-02-04T04:34:55;96046.72;;;20.28;24.08
62524;BME280;53689;56.878;60.672;2024-02-04T04:37:41;96049.50;;;20.16;23.07
62524;BME280;53689;56.878;60.672;2024-02-04T04:40:10;96055.28;;;20.25;23.26
62524;BME280;53689;56.878;60.672;2024-02-04T04:42:38;96055.78;;;20.22;22.41
62524;BME280;53689;56.878;60.672;2024-02-04T04:45:07;96060.75;;;20.30;22.82
62524;BME280;53689;56.878;60.672;2024-02-04T04:47:34;96047.38;;;20.18;24.20
62524;BME280;53689;56.878;60.672;2024-02-04T04:50:05;96044.53;;;20.25;24.46
62524;BME280;53689;56.878;60.672;2024-02-04T04:55:19;96046.59;;;20.35;24.69
62524;BME280;53689;56.878;60.672;2024-02-04T04:57:47;96033.88;;;20.30;23.64
62524;BME280;53689;56.878;60.672;2024-02-04T05:00:31;96034.44;;;20.32;21.83
62524;BME280;53689;56.878;60.672;2024-02-04T05:02:59;96034.25;;;20.05;23.31
62524;BME280;53689;56.878;60.672;2024-02-04T05:05:29;96046.81;;;20.33;24.14
62524;BME280;53689;56.878;60.672;2024-02-04T05:07:56;96044.53;;;20.25;23.13
62524;BME280;53689;56.878;60.672;2024-02-04T05:10:24;96043.91;;;20.35;23.13
62524;BME280;53689;56.878;60.672;2024-02-04T05:12:52;96047.81;;;20.44;23.85
62524;BME280;53689;56.878;60.672;2024-02-04T05:15:20;96044.31;;;20.44;23.35
62524;BME280;53689;56.878;60.672;2024-02-04T05:20:36;96035.34;;;20.38;23.99
62524;BME280;53689;56.878;60.672;2024-02-04T05:23:04;96035.66;;;20.24;23.77
62524;BME280;53689;56.878;60.672;2024-02-04T05:25:33;96028.91;;;20.22;24.03
62524;BME280;53689;56.878;60.672;2024-02-04T05:28:00;96030.78;;;20.38;24.68
62524;BME280;53689;56.878;60.672;2024-02-04T05:30:28;96018.06;;;20.34;22.42
62524;BME280;53689;56.878;60.672;2024-02-04T05:32:56;96018.00;;;20.29;22.23
62524;BME280;53689;56.878;60.672;2024-02-04T05:35:24;96022.47;;;20.40;22.92
62524;BME280;53689;56.878;60.672;2024-02-04T05:37:53;96015.97;;;20.36;23.34
62524;BME280;53689;56.878;60.672;2024-02-04T05:40:21;96021.09;;;20.55;23.48
62524;BME280;53689;56.878;60.672;2024-02-04T05:42:49;96013.50;;;20.34;22.85
62524;BME280;53689;56.878;60.672;2024-02-04T05:45:17;96021.34;;;20.53;23.54
62524;BME280;53689;56.878;60.672;2024-02-04T05:47:44;96021.91;;;20.38;24.32
62524;BME280;53689;56.878;60.672;2024-02-04T05:50:13;96020.22;;;20.49;23.70
62524;BME280;53689;56.878;60.672;2024-02-04T05:52:41;96025.81;;;20.47;24.83
62524;BME280;53689;56.878;60.672;2024-02-04T05:55:11;96017.59;;;20.54;23.19
62524;BME280;53689;56.878;60.672;2024-02-04T05:57:39;96022.25;;;20.42;24.20
62524;BME280;53689;56.878;60.672;2024-02-04T06:00:08;96016.75;;;20.36;22.45
62524;BME280;53689;56.878;60.672;2024-02-04T06:02:36;96019.28;;;20.43;22.00
62524;BME280;53689;56.878;60.672;2024-02-04T06:05:05;96009.44;;;20.15;21.98
62524;BME280;53689;56.878;60.672;2024-02-04T06:07:33;96020.13;;;20.27;23.07
62524;BME280;53689;56.878;60.672;2024-02-04T06:10:01;96023.31;;;20.41;21.29
62524;BME280;53689;56.878;60.672;2024-02-04T06:12:30;96014.88;;;20.20;24.02
62524;BME280;53689;56.878;60.672;2024-02-04T06:14:58;96013.97;;;20.14;22.10
62524;BME280;53689;56.878;60.672;2024-02-04T06:17:26;96020.53;;;20.18;23.45
62524;BME280;53689;56.878;60.672;2024-02-04T06:19:54;96015.81;;;20.26;23.34
62524;BME280;53689;56.878;60.672;2024-02-04T06:22:22;96013.03;;;20.55;24.02
62524;BME280;53689;56.878;60.672;2024-02-04T06:24:50;96012.28;;;20.25;21.68
62524;BME280;53689;56.878;60.672;2024-02-04T06:27:18;96007.78;;;19.96;21.80
62524;BME280;53689;56.878;60.672;2024-02-04T06:29:47;96020.00;;;20.04;23.00
62524;BME280;53689;56.878;60.672;2024-02-04T06:32:15;96012.91;;;19.98;21.98
62524;BME280;53689;56.878;60.672;2024-02-04T06:34:44;96021.88;;;20.04;22.53
62524;BME280;53689;56.878;60.672;2024-02-04T06:37:12;96018.22;;;19.81;21.84
62524;BME280;53689;56.878;60.672;2024-02-04T06:39:40;96020.47;;;19.72;22.14
62524;BME280;53689;56.878;60.672;2024-02-04T06:42:08;96011.78;;;19.65;22.11
62524;BME280;53689;56.878;60.672;2024-02-04T06:44:36;96014.88;;;19.74;24.07
62524;BME280;53689;56.878;60.672;2024-02-04T06:47:05;96011.47;;;19.78;22.77
62524;BME280;53689;56.878;60.672;2024-02-04T06:49:33;96007.06;;;19.72;22.00
62524;BME280;53689;56.878;60.672;2024-02-04T06:52:01;96005.34;;;19.66;21.82
62524;BME280;53689;56.878;60.672;2024-02-04T06:54:29;96011.47;;;19.78;23.99
62524;BME280;53689;56.878;60.672;2024-02-04T06:56:57;96001.16;;;19.87;23.62
62524;BME280;53689;56.878;60.672;2024-02-04T06:59:25;96011.13;;;19.75;22.55
62524;BME280;53689;56.878;60.672;2024-02-04T07:01:53;96015.44;;;19.76;22.43
62524;BME280;53689;56.878;60.672;2024-02-04T07:04:23;96014.59;;;19.87;22.71
62524;BME280;53689;56.878;60.672;2024-02-04T07:06:50;96016.50;;;19.75;22.12
62524;BME280;53689;56.878;60.672;2024-02-04T07:09:18;96014.72;;;19.80;21.91
62524;BME280;53689;56.878;60.672;2024-02-04T07:11:46;96012.72;;;19.88;22.05
62524;BME280;53689;56.878;60.672;2024-02-04T07:14:14;96019.56;;;19.95;22.22
62524;BME280;53689;56.878;60.672;2024-02-04T07:16:42;96011.91;;;19.87;21.45
62524;BME280;53689;56.878;60.672;2024-02-04T07:19:10;96005.69;;;19.69;22.68
62524;BME280;53689;56.878;60.672;2024-02-04T07:21:40;96006.94;;;19.79;23.31
62524;BME280;53689;56.878;60.672;2024-02-04T07:24:07;96013.91;;;19.80;21.84
62524;BME280;53689;56.878;60.672;2024-02-04T07:26:35;96008.97;;;19.60;21.84
62524;BME280;53689;56.878;60.672;2024-02-04T07:29:03;96012.38;;;19.55;22.42
62524;BME280;53689;56.878;60.672;2024-02-04T07:31:31;96008.44;;;19.46;22.58
62524;BME280;53689;56.878;60.672;2024-02-04T07:33:59;96002.72;;;19.42;22.18
62524;BME280;53689;56.878;60.672;2024-02-04T07:36:26;96008.66;;;19.44;23.16
62524;BME280;53689;56.878;60.672;2024-02-04T07:38:55;96009.66;;;19.38;22.31
62524;BME280;53689;56.878;60.672;2024-02-04T07:41:25;96009.19;;;19.29;22.52
62524;BME280;53689;56.878;60.672;2024-02-04T07:43:54;96007.09;;;19.31;23.06
62524;BME280;53689;56.878;60.672;2024-02-04T07:46:21;96006.28;;;19.31;22.95
62524;BME280;53689;56.878;60.672;2024-02-04T07:48:49;96014.66;;;19.34;24.00
62524;BME280;53689;56.878;60.672;2024-02-04T07:51:17;96004.72;;;19.35;22.40
62524;BME280;53689;56.878;60.672;2024-02-04T07:53:45;96012.56;;;19.36;22.99
62524;BME280;53689;56.878;60.672;2024-02-04T07:56:14;96016.72;;;19.44;22.95
62524;BME280;53689;56.878;60.672;2024-02-04T07:58:42;96008.78;;;19.49;23.35
62524;BME280;53689;56.878;60.672;2024-02-04T08:01:09;96013.66;;;19.52;23.02
62524;BME280;53689;56.878;60.672;2024-02-04T08:03:37;96009.66;;;19.38;22.98
62524;BME280;53689;56.878;60.672;2024-02-04T08:06:06;96018.50;;;19.38;22.43
62524;BME280;53689;56.878;60.672;2024-02-04T08:08:33;96014.66;;;19.34;22.90
62524;BME280;53689;56.878;60.672;2024-02-04T08:11:01;96014.25;;;19.25;24.01
62524;BME280;53689;56.878;60.672;2024-02-04T08:13:31;96010.00;;;19.30;22.95
62524;BME280;53689;56.878;60.672;2024-02-04T08:15:58;96012.50;;;19.19;23.23
62524;BME280;53689;56.878;60.672;2024-02-04T08:18:26;96014.00;;;19.15;22.78
62524;BME280;53689;56.878;60.672;2024-02-04T08:20:54;96013.09;;;19.09;22.93
62524;BME280;53689;56.878;60.672;2024-02-04T08:23:25;96015.41;;;19.06;22.66
62524;BME280;53689;56.878;60.672;2024-02-04T08:25:53;96012.28;;;19.09;23.13
62524;BME280;53689;56.878;60.672;2024-02-04T08:28:21;96018.22;;;19.11;23.51
62524;BME280;53689;56.878;60.672;2024-02-04T08:30:50;96017.06;;;19.07;23.47
62524;BME280;53689;56.878;60.672;2024-02-04T08:33:18;96016.72;;;19.03;22.56
62524;BME280;53689;56.878;60.672;2024-02-04T08:35:46;96015.66;;;19.04;23.36
62524;BME280;53689;56.878;60.672;2024-02-04T08:38:14;96021.72;;;18.99;23.41
62524;BME280;53689;56.878;60.672;2024-02-04T08:40:41;96021.03;;;19.16;24.36
62524;BME280;53689;56.878;60.672;2024-02-04T08:43:10;96019.63;;;19.13;23.27
62524;BME280;53689;56.878;60.672;2024-02-04T08:45:38;96021.50;;;19.01;22.94
62524;BME280;53689;56.878;60.672;2024-02-04T08:48:07;96021.50;;;19.01;23.21
62524;BME280;53689;56.878;60.672;2024-02-04T08:50:35;96015.53;;;18.99;22.82
62524;BME280;53689;56.878;60.672;2024-02-04T08:53:03;96023.25;;;19.07;24.36
62524;BME280;53689;56.878;60.672;2024-02-04T08:55:31;96013.31;;;18.96;22.91
62524;BME280;53689;56.878;60.672;2024-02-04T08:57:58;96015.44;;;18.94;22.88
62524;BME280;53689;56.878;60.672;2024-02-04T09:00:26;96022.88;;;18.92;23.27
62524;BME280;53689;56.878;60.672;2024-02-04T09:02:54;96025.44;;;18.86;23.31
62524;BME280;53689;56.878;60.672;2024-02-04T09:05:23;96028.34;;;18.85;23.46
62524;BME280;53689;56.878;60.672;2024-02-04T09:07:51;96021.50;;;18.89;23.27
62524;BME280;53689;56.878;60.672;2024-02-04T09:10:19;96028.22;;;18.92;22.97
62524;BME280;53689;56.878;60.672;2024-02-04T09:12:47;96024.16;;;19.13;23.59
62524;BME280;53689;56.878;60.672;2024-02-04T09:15:15;96018.44;;;19.09;23.22
62524;BME280;53689;56.878;60.672;2024-02-04T09:17:43;96017.28;;;19.17;23.44
62524;BME280;53689;56.878;60.672;2024-02-04T09:20:13;96017.28;;;19.17;23.26
62524;BME280;53689;56.878;60.672;2024-02-04T09:22:42;96020.06;;;19.22;23.68
62524;BME280;53689;56.878;60.672;2024-02-04T09:25:10;96018.50;;;19.38;23.73
62524;BME280;53689;56.878;60.672;2024-02-04T09:27:39;96013.84;;;19.34;22.80
62524;BME280;53689;56.878;60.672;2024-02-04T09:30:08;96013.91;;;19.22;22.70
62524;BME280;53689;56.878;60.672;2024-02-04T09:32:36;96014.69;;;19.22;23.72
62524;BME280;53689;56.878;60.672;2024-02-04T09:35:05;96009.06;;;19.36;24.13
62524;BME280;53689;56.878;60.672;2024-02-04T09:37:33;96004.63;;;19.71;23.95
62524;BME280;53689;56.878;60.672;2024-02-04T09:40:03;96012.34;;;19.96;23.12
62524;BME280;53689;56.878;60.672;2024-02-04T09:42:30;96011.47;;;20.24;24.44
62524;BME280;53689;56.878;60.672;2024-02-04T09:44:58;96012.53;;;20.23;23.07
62524;BME280;53689;56.878;60.672;2024-02-04T09:47:27;96018.47;;;19.79;23.46
62524;BME280;53689;56.878;60.672;2024-02-04T09:49:56;96014.25;;;19.54;23.20
62524;BME280;53689;56.878;60.672;2024-02-04T09:52:29;96016.94;;;19.54;23.14
62524;BME280;53689;56.878;60.672;2024-02-04T09:54:59;96020.81;;;19.76;24.53
62524;BME280;53689;56.878;60.672;2024-02-04T09:57:30;96015.31;;;19.82;25.34
62524;BME280;53689;56.878;60.672;2024-02-04T09:59:59;96016.28;;;19.76;24.61
62524;BME280;53689;56.878;60.672;2024-02-04T10:02:27;96027.97;;;19.99;24.81
62524;BME280;53689;56.878;60.672;2024-02-04T10:04:55;96012.13;;;19.98;24.47
62524;BME280;53689;56.878;60.672;2024-02-04T10:07:23;96021.91;;;20.21;23.57
62524;BME280;53689;56.878;60.672;2024-02-04T10:09:52;96024.72;;;20.14;24.53
62524;BME280;53689;56.878;60.672;2024-02-04T10:12:19;96019.53;;;20.07;23.86
62524;BME280;53689;56.878;60.672;2024-02-04T10:14:49;96032.06;;;20.19;25.44
62524;BME280;53689;56.878;60.672;2024-02-04T10:17:17;96028.09;;;20.21;23.59
62524;BME280;53689;56.878;60.672;2024-02-04T10:19:47;96029.31;;;20.14;23.94
62524;BME280;53689;56.878;60.672;2024-02-04T10:22:15;96028.91;;;20.22;24.91
62524;BME280;53689;56.878;60.672;2024-02-04T10:24:43;96029.63;;;20.34;24.59
62524;BME280;53689;56.878;60.672;2024-02-04T10:27:11;96032.91;;;20.36;25.02
62524;BME280;53689;56.878;60.672;2024-02-04T10:29:50;96032.00;;;20.31;24.52
62524;BME280;53689;56.878;60.672;2024-02-04T10:32:22;96037.31;;;20.26;25.05
62524;BME280;53689;56.878;60.672;2024-02-04T10:34:52;96031.84;;;20.55;25.50
62524;BME280;53689;56.878;60.672;2024-02-04T10:37:20;96030.88;;;20.44;25.07
62524;BME280;53689;56.878;60.672;2024-02-04T10:39:48;96040.28;;;20.29;25.11
62524;BME280;53689;56.878;60.672;2024-02-04T10:42:17;96039.44;;;20.41;25.07
62524;BME280;53689;56.878;60.672;2024-02-04T10:44:53;96045.88;;;20.40;24.78
62524;BME280;53689;56.878;60.672;2024-02-04T10:47:23;96039.81;;;20.32;25.00
62524;BME280;53689;56.878;60.672;2024-02-04T10:49:51;96052.03;;;20.57;25.63
62524;BME280;53689;56.878;60.672;2024-02-04T10:52:20;96049.50;;;20.50;24.52
62524;BME280;53689;56.878;60.672;2024-02-04T10:54:50;96059.03;;;20.41;25.30
62524;BME280;53689;56.878;60.672;2024-02-04T10:57:20;96068.59;;;20.49;25.24
62524;BME280;53689;56.878;60.672;2024-02-04T10:59:53;96057.97;;;20.76;25.73
62524;BME280;53689;56.878;60.672;2024-02-04T11:02:21;96058.94;;;20.70;25.80
62524;BME280;53689;56.878;60.672;2024-02-04T11:04:49;96064.56;;;20.51;25.10
62524;BME280;53689;56.878;60.672;2024-02-04T11:07:17;96064.84;;;20.50;24.88
62524;BME280;53689;56.878;60.672;2024-02-04T11:09:46;96066.22;;;20.70;25.55
62524;BME280;53689;56.878;60.672;2024-02-04T11:12:17;96066.22;;;20.70;24.98
62524;BME280;53689;56.878;60.672;2024-02-04T11:14:49;96071.34;;;20.54;25.16
62524;BME280;53689;56.878;60.672;2024-02-04T11:17:38;96074.34;;;20.75;26.05
62524;BME280;53689;56.878;60.672;2024-02-04T11:20:21;96078.19;;;20.79;25.41
62524;BME280;53689;56.878;60.672;2024-02-04T11:23:15;96079.81;;;20.80;25.85
62524;BME280;53689;56.878;60.672;2024-02-04T11:25:50;96079.66;;;20.70;25.71
62524;BME280;53689;56.878;60.672;2024-02-04T11:28:23;96077.22;;;20.85;26.02
62524;BME280;53689;56.878;60.672;2024-02-04T11:30:51;96090.09;;;20.83;25.43
62524;BME280;53689;56.878;60.672;2024-02-04T11:33:21;96091.72;;;20.50;24.79
62524;BME280;53689;56.878;60.672;2024-02-04T11:35:59;96091.13;;;20.48;25.61
62524;BME280;53689;56.878;60.672;2024-02-04T11:38:31;96091.38;;;20.80;25.93
62524;BME280;53689;56.878;60.672;2024-02-04T11:41:00;96087.78;;;20.75;25.80
62524;BME280;53689;56.878;60.672;2024-02-04T11:43:32;96095.69;;;20.82;26.10
62524;BME280;53689;56.878;60.672;2024-02-04T11:46:02;96097.66;;;20.86;26.15
62524;BME280;53689;56.878;60.672;2024-02-04T11:48:33;96102.50;;;20.84;25.37
62524;BME280;53689;56.878;60.672;2024-02-04T11:51:03;96105.81;;;20.74;25.39
62524;BME280;53689;56.878;60.672;2024-02-04T11:53:32;96101.97;;;20.70;25.15
62524;BME280;53689;56.878;60.672;2024-02-04T11:56:00;96112.50;;;20.72;25.37
62524;BME280;53689;56.878;60.672;2024-02-04T11:58:29;96119.19;;;20.86;26.10
62524;BME280;53689;56.878;60.672;2024-02-04T12:00:57;96112.56;;;20.77;25.30
62524;BME280;53689;56.878;60.672;2024-02-04T12:03:29;96117.56;;;20.85;26.26
62524;BME280;53689;56.878;60.672;2024-02-04T12:05:59;96121.06;;;20.86;25.69
62524;BME280;53689;56.878;60.672;2024-02-04T12:08:29;96118.94;;;21.05;25.69
62524;BME280;53689;56.878;60.672;2024-02-04T12:10:57;96123.84;;;21.08;25.39
62524;BME280;53689;56.878;60.672;2024-02-04T12:13:27;96121.41;;;20.89;24.46
62524;BME280;53689;56.878;60.672;2024-02-04T12:15:55;96129.41;;;21.01;25.99
62524;BME280;53689;56.878;60.672;2024-02-04T12:18:24;96136.22;;;21.09;25.54
62524;BME280;53689;56.878;60.672;2024-02-04T12:20:52;96130.19;;;21.02;25.47
62524;BME280;53689;56.878;60.672;2024-02-04T12:23:21;96122.84;;;20.80;25.74
62524;BME280;53689;56.878;60.672;2024-02-04T12:25:49;96126.53;;;21.08;25.39
62524;BME280;53689;56.878;60.672;2024-02-04T12:28:17;96128.91;;;20.87;25.36
62524;BME280;53689;56.878;60.672;2024-02-04T12:30:53;96130.28;;;20.90;25.49
62524;BME280;53689;56.878;60.672;2024-02-04T12:33:21;96126.28;;;20.92;26.07
62524;BME280;53689;56.878;60.672;2024-02-04T12:35:50;96132.16;;;20.89;25.92
62524;BME280;53689;56.878;60.672;2024-02-04T12:38:17;96118.94;;;20.88;25.90
62524;BME280;53689;56.878;60.672;2024-02-04T12:40:47;96127.34;;;20.74;25.37
62524;BME280;53689;56.878;60.672;2024-02-04T12:43:15;96133.50;;;20.75;25.58
62524;BME280;53689;56.878;60.672;2024-02-04T12:45:43;96138.97;;;20.80;25.41
62524;BME280;53689;56.878;60.672;2024-02-04T12:48:14;96136.16;;;20.87;25.65
62524;BME280;53689;56.878;60.672;2024-02-04T12:50:43;96142.63;;;20.74;25.74
62524;BME280;53689;56.878;60.672;2024-02-04T12:53:11;96137.81;;;20.76;25.53
62524;BME280;53689;56.878;60.672;2024-02-04T12:55:39;96135.22;;;20.81;25.22
62524;BME280;53689;56.878;60.672;2024-02-04T12:58:09;96132.13;;;20.72;25.36
62524;BME280;53689;56.878;60.672;2024-02-04T13:00:38;96135.72;;;20.78;25.72
62524;BME280;53689;56.878;60.672;2024-02-04T13:03:07;96145.16;;;20.80;25.81
62524;BME280;53689;56.878;60.672;2024-02-04T13:05:37;96143.53;;;20.79;25.65
62524;BME280;53689;56.878;60.672;2024-02-04T13:08:05;96147.97;;;20.86;26.00
62524;BME280;53689;56.878;60.672;2024-02-04T13:10:34;96149.81;;;20.68;24.84
62524;BME280;53689;56.878;60.672;2024-02-04T13:13:03;96151.88;;;20.78;26.81